Time;durP1;ratioP1;P1;durP2;ratioP2;P2;SDS_P1;SDS_P2;PMS_P1;PMS_P2;Temp;Humidity;BMP_temperature;BMP_pressure;BME280_temperature;BME280_humidity;BME280_pressure;Samples;Min_cycle;Max_cycle;Signal;HPM_P1;HPM_P2
2023/03/17 00:00:41;;;;;;;;;;;;;;;;;;4944838;28;19914;-76
2023/03/17 00:03:07;;;;;;;;;;;;;;;;;;4945301;28;20013;-78
2023/03/17 00:05:32;;;;;;;;;;;;;;;;;;4945493;28;19914;-78
2023/03/17 00:07:58;;;;;;;;;;;;;;;;;;4945622;28;19934;-77
2023/03/17 00:10:24;;;;;;;;;;;;;;;;;;4945072;28;19914;-74
2023/03/17 00:12:49;;;;;;;;;;;;;;;;;;4960210;28;19918;-76
2023/03/17 00:15:16;;;;;;;;;;;;;;;;;;4957180;23;20001;-87
2023/03/17 00:17:42;;;;;;;;;;;;;;;;;;4937865;29;19923;-87
2023/03/17 00:20:07;;;;;;;;;;;;;;;;;;4938841;29;20325;-87
2023/03/17 00:22:33;;;;;;;;;;;;;;;;;;4938370;29;20298;-84
2023/03/17 00:24:59;;;;;;;;;;;;;;;;;;4955524;28;19922;-84
2023/03/17 00:27:24;;;;;;;;;;;;;;;;;;4938395;29;19919;-83
2023/03/17 00:29:50;;;;;;;;;;;;;;;;;;4954283;28;19922;-86
2023/03/17 00:32:20;;;;;;;;;;;;;;;;;;4954820;29;19918;-85
2023/03/17 00:34:52;;;;;;;;;;;;;;;;;;4931014;29;19970;-85
2023/03/17 00:37:18;;;;;;;;;;;;;;;;;;4955387;28;19914;-86
2023/03/17 00:39:44;;;;;;;;;;;;;;;;;;4954335;29;19930;-88
2023/03/17 00:42:09;;;;;;;;;;;;;;;;;;4938197;29;19922;-85
2023/03/17 00:44:39;;;;;;;;;;;;;;;;;;4955297;29;19914;-86
2023/03/17 00:47:05;;;;;;;;;;;;;;;;;;4937862;29;19930;-85
2023/03/17 00:49:31;;;;;;;;;;;;;;;;;;4938223;29;19918;-84
2023/03/17 00:52:00;;;;;;;;;;;;;;;;;;4922314;29;19914;-87
2023/03/17 00:54:25;;;;;;;;;;;;;;;;;;4937886;29;19920;-87
2023/03/17 00:56:51;;;;;;;;;;;;;;;;;;4937953;29;20353;-83
2023/03/17 00:59:17;;;;;;;;;;;;;;;;;;4937717;29;19915;-87
2023/03/17 01:01:43;;;;;;;;;;;;;;;;;;4938042;29;20001;-85
2023/03/17 01:04:09;;;;;;;;;;;;;;;;;;4937828;29;20009;-84
2023/03/17 01:06:35;;;;;;;;;;;;;;;;;;4937402;29;19961;-84
2023/03/17 01:09:02;;;;;;;;;;;;;;;;;;4937306;29;19969;-86
2023/03/17 01:11:29;;;;;;;;;;;;;;;;;;4937258;29;19914;-86
2023/03/17 01:13:55;;;;;;;;;;;;;;;;;;4937406;29;19914;-85
2023/03/17 01:16:21;;;;;;;;;;;;;;;;;;4937382;29;19985;-84
2023/03/17 01:18:48;;;;;;;;;;;;;;;;;;4937602;29;20445;-85
2023/03/17 01:21:14;;;;;;;;;;;;;;;;;;4937683;29;19918;-86
2023/03/17 01:23:39;;;;;;;;;;;;;;;;;;4953820;29;20018;-86
2023/03/17 01:26:05;;;;;;;;;;;;;;;;;;4922382;29;20009;-88
2023/03/17 01:28:31;;;;;;;;;;;;;;;;;;4921661;29;19919;-82
2023/03/17 01:30:57;;;;;;;;;;;;;;;;;;4937264;29;19910;-82
2023/03/17 01:33:22;;;;;;;;;;;;;;;;;;4939712;29;19921;-83
2023/03/17 01:35:48;;;;;;;;;;;;;;;;;;4954096;28;19961;-85
2023/03/17 01:38:14;;;;;;;;;;;;;;;;;;4953172;29;20386;-81
2023/03/17 01:40:39;;;;;;;;;;;;;;;;;;4937215;29;19922;-83
2023/03/17 01:43:05;;;;;;;;;;;;;;;;;;4937044;29;19914;-82
2023/03/17 01:45:30;;;;;;;;;;;;;;;;;;4952863;28;19925;-85
2023/03/17 01:47:56;;;;;;;;;;;;;;;;;;4936989;29;19919;-89
2023/03/17 01:50:22;;;;;;;;;;;;;;;;;;4954123;29;20392;-83
2023/03/17 01:52:47;;;;;;;;;;;;;;;;;;4937095;29;19942;-81
2023/03/17 01:55:13;;;;;;;;;;;;;;;;;;4952619;28;19915;-82
2023/03/17 01:57:38;;;;;;;;;;;;;;;;;;4952897;29;19950;-86
2023/03/17 02:00:04;;;;;;;;;;;;;;;;;;4969178;28;19930;-82
2023/03/17 02:02:38;;;;;;;;;;;;;;;;;;4967858;28;19937;-81
2023/03/17 02:05:04;;;;;;;;;;;;;;;;;;4952828;29;20433;-82
2023/03/17 02:07:30;;;;;;;;;;;;;;;;;;4955395;28;20106;-83
2023/03/17 02:09:55;;;;;;;;;;;;;;;;;;4940705;29;20306;-81
2023/03/17 02:12:22;;;;;;;;;;;;;;;;;;4956866;28;19925;-84
2023/03/17 02:14:48;;;;;;;;;;;;;;;;;;4956303;29;19914;-82
2023/03/17 02:17:13;;;;;;;;;;;;;;;;;;4940638;29;19919;-85
2023/03/17 02:19:41;;;;;;;;;;;;;;;;;;4940121;29;20297;-84
2023/03/17 02:22:07;;;;;;;;;;;;;;;;;;4924688;29;20001;-86
2023/03/17 02:24:32;;;;;;;;;;;;;;;;;;4957587;29;20338;-85
2023/03/17 02:26:58;;;;;;;;;;;;;;;;;;4975135;28;19982;-85
2023/03/17 02:29:23;;;;;;;;;;;;;;;;;;4925073;29;19919;-80
2023/03/17 02:31:49;;;;;;;;;;;;;;;;;;4968077;28;19921;-84
2023/03/17 02:34:14;;;;;;;;;;;;;;;;;;4940279;29;20388;-82
2023/03/17 02:36:40;;;;;;;;;;;;;;;;;;4956050;29;19969;-83
2023/03/17 02:39:06;;;;;;;;;;;;;;;;;;4956081;29;19915;-79
2023/03/17 02:41:33;;;;;;;;;;;;;;;;;;4956493;29;19922;-82
2023/03/17 02:43:58;;;;;;;;;;;;;;;;;;4941232;29;19915;-83
2023/03/17 02:46:24;;;;;;;;;;;;;;;;;;4961065;29;20382;-84
2023/03/17 02:48:50;;;;;;;;;;;;;;;;;;4940752;29;20444;-84
2023/03/17 02:51:15;;;;;;;;;;;;;;;;;;4973040;28;19921;-84
2023/03/17 02:53:41;;;;;;;;;;;;;;;;;;4973187;28;20381;-85
2023/03/17 02:56:06;;;;;;;;;;;;;;;;;;4940936;29;20401;-82
2023/03/17 02:58:32;;;;;;;;;;;;;;;;;;4957090;28;19921;-83
2023/03/17 03:00:57;;;;;;;;;;;;;;;;;;4957434;29;19915;-82
2023/03/17 03:03:23;;;;;;;;;;;;;;;;;;4958088;29;19969;-79
2023/03/17 03:05:48;;;;;;;;;;;;;;;;;;4973584;28;19961;-82
2023/03/17 03:08:15;;;;;;;;;;;;;;;;;;4959330;28;19944;-82
2023/03/17 03:10:41;;;;;;;;;;;;;;;;;;4958753;29;19925;-84
2023/03/17 03:13:07;;;;;;;;;;;;;;;;;;4957696;28;19914;-80
2023/03/17 03:15:32;;;;;;;;;;;;;;;;;;4971437;28;19969;-81
2023/03/17 03:17:58;;;;;;;;;;;;;;;;;;4971590;28;20009;-82
2023/03/17 03:20:24;;;;;;;;;;;;;;;;;;4954674;29;19914;-82
2023/03/17 03:22:49;;;;;;;;;;;;;;;;;;4955471;29;19925;-82
2023/03/17 03:25:15;;;;;;;;;;;;;;;;;;4971020;28;20334;-81
2023/03/17 03:27:40;;;;;;;;;;;;;;;;;;4955219;29;19923;-81
2023/03/17 03:30:07;;;;;;;;;;;;;;;;;;4971231;28;19936;-80
2023/03/17 03:32:32;;;;;;;;;;;;;;;;;;4959962;28;19915;-84
2023/03/17 03:34:58;;;;;;;;;;;;;;;;;;4944586;29;19914;-80
2023/03/17 03:37:25;;;;;;;;;;;;;;;;;;4923207;29;19919;-79
2023/03/17 03:39:51;;;;;;;;;;;;;;;;;;4950803;28;19926;-83
2023/03/17 03:42:16;;;;;;;;;;;;;;;;;;4918703;29;19961;-80
2023/03/17 03:44:42;;;;;;;;;;;;;;;;;;4939353;29;19922;-81
2023/03/17 03:47:07;;;;;;;;;;;;;;;;;;4951682;28;20335;-82
2023/03/17 03:49:33;;;;;;;;;;;;;;;;;;4937851;29;19921;-81
2023/03/17 03:51:58;;;;;;;;;;;;;;;;;;4936074;29;19919;-81
2023/03/17 03:54:24;;;;;;;;;;;;;;;;;;4935991;29;19915;-80
2023/03/17 03:56:49;;;;;;;;;;;;;;;;;;4922634;29;19914;-83
2023/03/17 03:59:15;;;;;;;;;;;;;;;;;;4955326;29;19914;-80
2023/03/17 04:01:41;;;;;;;;;;;;;;;;;;4970630;28;19969;-82
2023/03/17 04:04:06;;;;;;;;;;;;;;;;;;4955704;29;19921;-81
2023/03/17 04:06:32;;;;;;;;;;;;;;;;;;4954187;29;19979;-83
2023/03/17 04:08:57;;;;;;;;;;;;;;;;;;4970545;28;19925;-81
2023/03/17 04:11:23;;;;;;;;;;;;;;;;;;4954563;29;19914;-81
2023/03/17 04:13:48;;;;;;;;;;;;;;;;;;4970388;28;19914;-84
2023/03/17 04:16:15;;;;;;;;;;;;;;;;;;4970069;28;20005;-81
2023/03/17 04:18:40;;;;;;;;;;;;;;;;;;4939190;29;19956;-80
2023/03/17 04:21:07;;;;;;;;;;;;;;;;;;4938744;29;20326;-81
2023/03/17 04:23:32;;;;;;;;;;;;;;;;;;4954817;29;19919;-86
2023/03/17 04:25:58;;;;;;;;;;;;;;;;;;4970221;28;19915;-85
2023/03/17 04:28:23;;;;;;;;;;;;;;;;;;4955523;29;19918;-82
2023/03/17 04:30:49;;;;;;;;;;;;;;;;;;4969589;28;19914;-82
2023/03/17 04:33:15;;;;;;;;;;;;;;;;;;4970455;28;19914;-86
2023/03/17 04:35:41;;;;;;;;;;;;;;;;;;4947986;29;19964;-84
2023/03/17 04:38:06;;;;;;;;;;;;;;;;;;4953836;29;19942;-83
2023/03/17 04:40:32;;;;;;;;;;;;;;;;;;4942574;29;19918;-84
2023/03/17 04:42:57;;;;;;;;;;;;;;;;;;4954945;29;19962;-80
2023/03/17 04:45:23;;;;;;;;;;;;;;;;;;4937236;29;20398;-79
2023/03/17 04:47:48;;;;;;;;;;;;;;;;;;4944801;29;20299;-81
2023/03/17 04:50:17;;;;;;;;;;;;;;;;;;4954323;29;19914;-82
2023/03/17 04:52:42;;;;;;;;;;;;;;;;;;4938135;29;19914;-81
2023/03/17 04:55:08;;;;;;;;;;;;;;;;;;4954756;28;20044;-84
2023/03/17 04:57:33;;;;;;;;;;;;;;;;;;4954388;28;19996;-82
2023/03/17 04:59:58;;;;;;;;;;;;;;;;;;4954886;29;20346;-82
2023/03/17 05:02:25;;;;;;;;;;;;;;;;;;4953762;29;19914;-82
2023/03/17 05:04:50;;;;;;;;;;;;;;;;;;4921728;29;20395;-81
2023/03/17 05:07:16;;;;;;;;;;;;;;;;;;4953443;29;19939;-81
2023/03/17 05:09:41;;;;;;;;;;;;;;;;;;4937479;29;19914;-82
2023/03/17 05:12:08;;;;;;;;;;;;;;;;;;4953621;29;19914;-80
2023/03/17 05:14:33;;;;;;;;;;;;;;;;;;4953222;29;19915;-82
2023/03/17 05:16:59;;;;;;;;;;;;;;;;;;4921517;29;19918;-82
2023/03/17 05:19:25;;;;;;;;;;;;;;;;;;4953148;29;19921;-82
2023/03/17 05:21:51;;;;;;;;;;;;;;;;;;4954512;29;19919;-82
2023/03/17 05:24:16;;;;;;;;;;;;;;;;;;4937791;29;19969;-81
2023/03/17 05:26:42;;;;;;;;;;;;;;;;;;4937521;29;19945;-82
2023/03/17 05:29:07;;;;;;;;;;;;;;;;;;4937419;29;19971;-83
2023/03/17 05:31:33;;;;;;;;;;;;;;;;;;4937967;29;19918;-81
2023/03/17 05:33:58;;;;;;;;;;;;;;;;;;4921908;29;19930;-83
2023/03/17 05:36:24;;;;;;;;;;;;;;;;;;4923762;29;19922;-81
2023/03/17 05:38:50;;;;;;;;;;;;;;;;;;4953507;29;19918;-79
2023/03/17 05:41:15;;;;;;;;;;;;;;;;;;4953491;29;20264;-80
2023/03/17 05:43:41;;;;;;;;;;;;;;;;;;4953343;29;19919;-81
2023/03/17 05:46:07;;;;;;;;;;;;;;;;;;4921859;29;19922;-81
2023/03/17 05:48:32;;;;;;;;;;;;;;;;;;4939855;29;19919;-80
2023/03/17 05:50:59;;;;;;;;;;;;;;;;;;4955069;29;20445;-84
2023/03/17 05:53:24;;;;;;;;;;;;;;;;;;4953728;29;19922;-83
2023/03/17 05:55:51;;;;;;;;;;;;;;;;;;4937083;29;20370;-82
2023/03/17 05:58:17;;;;;;;;;;;;;;;;;;4937807;29;19922;-86
2023/03/17 06:00:42;;;;;;;;;;;;;;;;;;4954647;28;19914;-85
2023/03/17 06:03:08;;;;;;;;;;;;;;;;;;4954350;29;19922;-82
2023/03/17 06:05:34;;;;;;;;;;;;;;;;;;4920989;29;19969;-80
2023/03/17 06:08:00;;;;;;;;;;;;;;;;;;4937128;29;19918;-83
2023/03/17 06:10:25;;;;;;;;;;;;;;;;;;4937086;29;19914;-83
2023/03/17 06:12:51;;;;;;;;;;;;;;;;;;4937210;29;20371;-83
2023/03/17 06:15:17;;;;;;;;;;;;;;;;;;4953843;28;19985;-81
2023/03/17 06:17:43;;;;;;;;;;;;;;;;;;4948848;23;19950;-78
2023/03/17 06:20:09;;;;;;;;;;;;;;;;;;4953344;29;19915;-78
2023/03/17 06:22:36;;;;;;;;;;;;;;;;;;4954811;29;19925;-78
2023/03/17 06:25:01;;;;;;;;;;;;;;;;;;4954563;29;19914;-78
2023/03/17 06:27:27;;;;;;;;;;;;;;;;;;4954843;28;19921;-78
2023/03/17 06:29:52;;;;;;;;;;;;;;;;;;4938059;29;19915;-78
2023/03/17 06:32:18;;;;;;;;;;;;;;;;;;4954948;29;19922;-79
2023/03/17 06:34:46;;;;;;;;;;;;;;;;;;4918655;29;19922;-78
2023/03/17 06:37:11;;;;;;;;;;;;;;;;;;4950060;28;19914;-78
2023/03/17 06:39:37;;;;;;;;;;;;;;;;;;4954631;29;19922;-78
2023/03/17 06:42:03;;;;;;;;;;;;;;;;;;4954864;29;19945;-78
2023/03/17 06:44:28;;;;;;;;;;;;;;;;;;4938234;29;19914;-78
2023/03/17 06:46:54;;;;;;;;;;;;;;;;;;4954609;29;20275;-78
2023/03/17 06:49:19;;;;;;;;;;;;;;;;;;4954444;29;19925;-77
2023/03/17 06:51:44;;;;;;;;;;;;;;;;;;4954762;29;19992;-79
2023/03/17 06:54:11;;;;;;;;;;;;;;;;;;4970602;28;19914;-79
2023/03/17 06:56:36;;;;;;;;;;;;;;;;;;4956612;29;19939;-79
2023/03/17 06:59:02;;;;;;;;;;;;;;;;;;4953143;29;19914;-79
2023/03/17 07:01:27;;;;;;;;;;;;;;;;;;4941761;29;20293;-77
2023/03/17 07:03:53;;;;;;;;;;;;;;;;;;4957573;29;19937;-78
2023/03/17 07:06:18;;;;;;;;;;;;;;;;;;4959978;28;20286;-80
2023/03/17 07:08:45;;;;;;;;;;;;;;;;;;4960559;29;19929;-78
2023/03/17 07:11:10;;;;;;;;;;;;;;;;;;4964728;29;19937;-78
2023/03/17 07:13:36;;;;;;;;;;;;;;;;;;4976469;28;19898;-78
2023/03/17 07:16:04;;;;;;;;;;;;;;;;;;4975691;28;19974;-79
2023/03/17 07:18:30;;;;;;;;;;;;;;;;;;4977425;28;19923;-78
2023/03/17 07:20:56;;;;;;;;;;;;;;;;;;4977823;29;19903;-78
2023/03/17 07:23:22;;;;;;;;;;;;;;;;;;4961558;28;19953;-81
2023/03/17 07:25:47;;;;;;;;;;;;;;;;;;4978858;28;19922;-79
2023/03/17 07:28:13;;;;;;;;;;;;;;;;;;4976417;29;19918;-81
2023/03/17 07:30:39;;;;;;;;;;;;;;;;;;4967873;29;19914;-82
2023/03/17 07:33:05;;;;;;;;;;;;;;;;;;4943652;29;20009;-82
2023/03/17 07:35:32;;;;;;;;;;;;;;;;;;4958688;29;19953;-83
2023/03/17 07:37:57;;;;;;;;;;;;;;;;;;4964656;29;19965;-80
2023/03/17 07:40:23;;;;;;;;;;;;;;;;;;4947081;29;19914;-82
2023/03/17 07:42:49;;;;;;;;;;;;;;;;;;4944279;29;20387;-81
2023/03/17 07:45:14;;;;;;;;;;;;;;;;;;4943996;29;19919;-82
2023/03/17 07:47:40;;;;;;;;;;;;;;;;;;4973251;28;19929;-90
2023/03/17 07:50:05;;;;;;;;;;;;;;;;;;4945651;29;19922;-92
2023/03/17 07:52:31;;;;;;;;;;;;;;;;;;4924091;29;19922;-91
2023/03/17 07:54:57;;;;;;;;;;;;;;;;;;4922223;29;19915;-90
2023/03/17 07:57:22;;;;;;;;;;;;;;;;;;4955813;29;19922;-89
2023/03/17 07:59:49;;;;;;;;;;;;;;;;;;4941922;29;19915;-87
2023/03/17 08:02:15;;;;;;;;;;;;;;;;;;4942745;29;19911;-90
2023/03/17 08:04:40;;;;;;;;;;;;;;;;;;4927533;29;19915;-90
2023/03/17 08:07:06;;;;;;;;;;;;;;;;;;4940112;29;19918;-90
2023/03/17 08:09:31;;;;;;;;;;;;;;;;;;4924004;29;19919;-91
2023/03/17 08:11:57;;;;;;;;;;;;;;;;;;4955164;29;19914;-92
2023/03/17 08:14:22;;;;;;;;;;;;;;;;;;4923396;29;19953;-93
2023/03/17 08:16:48;;;;;;;;;;;;;;;;;;4939946;29;19919;-89
2023/03/17 08:19:13;;;;;;;;;;;;;;;;;;4928109;29;19918;-89
2023/03/17 08:21:39;;;;;;;;;;;;;;;;;;4922613;29;19942;-92
2023/03/17 08:24:04;;;;;;;;;;;;;;;;;;4925054;29;19965;-79
2023/03/17 08:26:31;;;;;;;;;;;;;;;;;;4920488;29;19922;-78
2023/03/17 08:28:56;;;;;;;;;;;;;;;;;;4935250;29;19918;-78
2023/03/17 08:31:21;;;;;;;;;;;;;;;;;;4919504;29;19937;-78
2023/03/17 08:33:47;;;;;;;;;;;;;;;;;;4919983;29;19915;-78
2023/03/17 08:36:12;;;;;;;;;;;;;;;;;;4955205;29;19923;-78
2023/03/17 08:38:38;;;;;;;;;;;;;;;;;;4938529;29;19915;-78
2023/03/17 08:41:05;;;;;;;;;;;;;;;;;;4919062;29;19923;-78
2023/03/17 08:43:30;;;;;;;;;;;;;;;;;;4934803;29;19915;-79
2023/03/17 08:45:56;;;;;;;;;;;;;;;;;;4936132;29;20026;-89
2023/03/17 08:48:21;;;;;;;;;;;;;;;;;;4920078;29;19925;-85
2023/03/17 08:50:47;;;;;;;;;;;;;;;;;;4921778;29;19915;-94
2023/03/17 08:53:13;;;;;;;;;;;;;;;;;;4928899;29;20021;-94
2023/03/17 08:55:38;;;;;;;;;;;;;;;;;;4906328;29;20371;-94
2023/03/17 08:58:04;;;;;;;;;;;;;;;;;;4906510;29;19919;-93
2023/03/17 09:00:29;;;;;;;;;;;;;;;;;;4906795;29;20395;-95
2023/03/17 09:02:57;;;;;;;;;;;;;;;;;;4907712;29;19915;-96
2023/03/17 09:05:22;;;;;;;;;;;;;;;;;;4907031;29;19915;-95
2023/03/17 09:07:48;;;;;;;;;;;;;;;;;;4923406;29;19919;-95
2023/03/17 09:10:15;;;;;;;;;;;;;;;;;;4891978;29;19997;-95
2023/03/17 09:12:41;;;;;;;;;;;;;;;;;;4900067;29;19899;-91
2023/03/17 09:17:53;;;;;;;;;;;;;;;;;;5463798;23;19918;-92
2023/03/17 09:20:19;;;;;;;;;;;;;;;;;;4989250;28;19914;-93
2023/03/17 09:22:47;;;;;;;;;;;;;;;;;;4982295;28;19918;-93
2023/03/17 09:25:13;;;;;;;;;;;;;;;;;;4966136;28;19915;-95
2023/03/17 09:27:39;;;;;;;;;;;;;;;;;;4928409;29;19919;-94
2023/03/17 09:30:04;;;;;;;;;;;;;;;;;;4926919;29;20489;-93
2023/03/17 09:32:30;;;;;;;;;;;;;;;;;;4931535;29;19915;-93
2023/03/17 09:34:56;;;;;;;;;;;;;;;;;;4936434;29;19914;-93
2023/03/17 09:37:22;;;;;;;;;;;;;;;;;;4937890;29;19915;-95
2023/03/17 09:39:47;;;;;;;;;;;;;;;;;;4940728;29;20350;-95
2023/03/17 09:42:13;;;;;;;;;;;;;;;;;;4941193;29;19902;-95
2023/03/17 09:44:39;;;;;;;;;;;;;;;;;;4942859;29;19914;-94
2023/03/17 09:47:04;;;;;;;;;;;;;;;;;;4943023;29;19919;-95
2023/03/17 09:49:30;;;;;;;;;;;;;;;;;;4941000;29;19918;-94
2023/03/17 09:51:55;;;;;;;;;;;;;;;;;;4955085;29;19914;-92
2023/03/17 09:54:21;;;;;;;;;;;;;;;;;;4939437;29;19914;-93
2023/03/17 09:56:50;;;;;;;;;;;;;;;;;;4957126;29;19915;-91
2023/03/17 09:59:15;;;;;;;;;;;;;;;;;;4942421;29;19911;-94
2023/03/17 10:01:41;;;;;;;;;;;;;;;;;;4963277;28;19910;-94
2023/03/17 10:04:06;;;;;;;;;;;;;;;;;;4946846;28;19907;-91
2023/03/17 10:06:32;;;;;;;;;;;;;;;;;;4960282;29;20404;-93
2023/03/17 10:09:00;;;;;;;;;;;;;;;;;;4920196;29;19918;-93
2023/03/17 10:11:28;;;;;;;;;;;;;;;;;;4929368;29;19970;-93
2023/03/17 10:13:56;;;;;;;;;;;;;;;;;;4927825;29;19915;-92
2023/03/17 10:16:25;;;;;;;;;;;;;;;;;;4927329;29;19917;-94
2023/03/17 10:18:50;;;;;;;;;;;;;;;;;;4927217;29;19918;-92
2023/03/17 10:21:16;;;;;;;;;;;;;;;;;;4926736;29;20346;-93
2023/03/17 10:23:42;;;;;;;;;;;;;;;;;;4943190;29;19926;-93
2023/03/17 10:26:08;;;;;;;;;;;;;;;;;;4926238;29;19946;-92
2023/03/17 10:28:37;;;;;;;;;;;;;;;;;;4942634;29;20375;-94
2023/03/17 10:31:03;;;;;;;;;;;;;;;;;;4929099;29;20002;-96
2023/03/17 10:33:29;;;;;;;;;;;;;;;;;;4930159;29;19962;-95
2023/03/17 10:35:55;;;;;;;;;;;;;;;;;;4929048;29;19914;-93
2023/03/17 10:38:21;;;;;;;;;;;;;;;;;;4929725;29;19915;-94
2023/03/17 10:40:47;;;;;;;;;;;;;;;;;;4945560;29;20009;-93
2023/03/17 10:43:13;;;;;;;;;;;;;;;;;;4929695;29;19919;-93
2023/03/17 10:45:40;;;;;;;;;;;;;;;;;;4945658;28;19914;-94
2023/03/17 10:48:05;;;;;;;;;;;;;;;;;;4939509;29;19946;-93
2023/03/17 10:50:31;;;;;;;;;;;;;;;;;;4942839;29;19915;-92
2023/03/17 10:52:59;;;;;;;;;;;;;;;;;;4947888;29;19929;-93
2023/03/17 10:55:28;;;;;;;;;;;;;;;;;;4949023;28;20032;-93
2023/03/17 10:57:54;;;;;;;;;;;;;;;;;;4964118;29;19962;-93
2023/03/17 11:00:19;;;;;;;;;;;;;;;;;;4948342;28;19957;-94
2023/03/17 11:02:45;;;;;;;;;;;;;;;;;;4964062;28;19906;-93
2023/03/17 11:05:11;;;;;;;;;;;;;;;;;;4948041;29;19902;-93
2023/03/17 11:07:37;;;;;;;;;;;;;;;;;;4946934;29;19970;-92
2023/03/17 11:10:06;;;;;;;;;;;;;;;;;;4945406;29;19915;-94
2023/03/17 11:12:32;;;;;;;;;;;;;;;;;;4958828;29;19910;-94
2023/03/17 11:14:58;;;;;;;;;;;;;;;;;;4935201;29;19973;-94
2023/03/17 11:17:24;;;;;;;;;;;;;;;;;;4929304;29;19919;-93
2023/03/17 11:19:57;;;;;;;;;;;;;;;;;;4931332;29;19969;-95
2023/03/17 11:22:22;;;;;;;;;;;;;;;;;;4929870;29;19957;-94
2023/03/17 11:24:48;;;;;;;;;;;;;;;;;;4927909;29;20013;-95
2023/03/17 11:27:29;;;;;;;;;;;;;;;;;;4929195;29;20005;-94
2023/03/17 11:29:56;;;;;;;;;;;;;;;;;;4929226;29;20397;-94
2023/03/17 11:32:22;;;;;;;;;;;;;;;;;;4945373;29;19914;-84
2023/03/17 11:34:47;;;;;;;;;;;;;;;;;;4941873;29;19915;-91
2023/03/17 11:37:13;;;;;;;;;;;;;;;;;;4956897;28;20314;-89
2023/03/17 11:39:39;;;;;;;;;;;;;;;;;;4940696;29;20293;-90
2023/03/17 11:42:07;;;;;;;;;;;;;;;;;;4939775;29;20282;-91
2023/03/17 11:44:35;;;;;;;;;;;;;;;;;;4922281;29;20298;-93
2023/03/17 11:47:01;;;;;;;;;;;;;;;;;;4924035;29;19922;-93
2023/03/17 11:49:27;;;;;;;;;;;;;;;;;;4930890;28;19918;-89
2023/03/17 11:51:53;;;;;;;;;;;;;;;;;;4971461;28;20377;-90
2023/03/17 11:54:18;;;;;;;;;;;;;;;;;;4960822;28;19914;-91
2023/03/17 11:56:44;;;;;;;;;;;;;;;;;;4946551;29;19925;-92
2023/03/17 11:59:10;;;;;;;;;;;;;;;;;;4940074;29;19922;-90
2023/03/17 12:01:38;;;;;;;;;;;;;;;;;;4924616;29;19914;-89
2023/03/17 12:04:04;;;;;;;;;;;;;;;;;;4955878;29;19924;-87
2023/03/17 12:06:30;;;;;;;;;;;;;;;;;;4955531;28;20370;-86
2023/03/17 12:08:56;;;;;;;;;;;;;;;;;;4938980;29;19918;-87
2023/03/17 12:11:21;;;;;;;;;;;;;;;;;;4938507;29;19922;-88
2023/03/17 12:13:47;;;;;;;;;;;;;;;;;;4938272;29;20298;-86
2023/03/17 12:16:13;;;;;;;;;;;;;;;;;;4952745;23;19978;-79
2023/03/17 12:18:38;;;;;;;;;;;;;;;;;;4960662;28;19918;-78
2023/03/17 12:21:04;;;;;;;;;;;;;;;;;;4960539;28;19922;-79
2023/03/17 12:23:30;;;;;;;;;;;;;;;;;;4945853;28;19914;-78
2023/03/17 12:26:17;;;;;;;;;;;;;;;;;;4959476;28;19938;-80
2023/03/17 12:28:43;;;;;;;;;;;;;;;;;;4943217;28;19957;-79
2023/03/17 12:31:11;;;;;;;;;;;;;;;;;;4943017;28;19929;-78
2023/03/17 12:33:37;;;;;;;;;;;;;;;;;;4943153;28;19914;-77
2023/03/17 12:36:03;;;;;;;;;;;;;;;;;;4977705;28;19914;-80
2023/03/17 12:38:29;;;;;;;;;;;;;;;;;;4977601;28;20396;-81
2023/03/17 12:40:54;;;;;;;;;;;;;;;;;;4927757;28;19997;-80
2023/03/17 12:43:20;;;;;;;;;;;;;;;;;;4958153;28;19989;-77
2023/03/17 12:45:46;;;;;;;;;;;;;;;;;;4975227;28;19906;-78
2023/03/17 12:48:11;;;;;;;;;;;;;;;;;;4938096;29;20377;-78
2023/03/17 12:50:37;;;;;;;;;;;;;;;;;;4974548;28;19920;-77
2023/03/17 12:53:02;;;;;;;;;;;;;;;;;;4973452;28;19918;-77
2023/03/17 12:55:28;;;;;;;;;;;;;;;;;;4974679;28;19914;-77
2023/03/17 12:57:57;;;;;;;;;;;;;;;;;;4957650;28;19914;-78
2023/03/17 13:00:24;;;;;;;;;;;;;;;;;;4958302;28;19921;-78
2023/03/17 13:02:56;;;;;;;;;;;;;;;;;;4928008;28;19969;-78
2023/03/17 13:05:22;;;;;;;;;;;;;;;;;;4958360;28;19914;-77
2023/03/17 13:07:47;;;;;;;;;;;;;;;;;;4925778;28;19940;-76
2023/03/17 13:10:13;;;;;;;;;;;;;;;;;;4926316;28;20023;-77
2023/03/17 13:12:39;;;;;;;;;;;;;;;;;;4944984;28;20251;-78
2023/03/17 13:15:04;;;;;;;;;;;;;;;;;;4962803;28;20334;-77
2023/03/17 13:17:30;;;;;;;;;;;;;;;;;;4944152;28;20286;-78
2023/03/17 13:19:55;;;;;;;;;;;;;;;;;;4958070;28;19914;-77
2023/03/17 13:22:21;;;;;;;;;;;;;;;;;;4957630;28;19921;-82
2023/03/17 13:24:50;;;;;;;;;;;;;;;;;;4927327;28;20315;-78
2023/03/17 13:27:16;;;;;;;;;;;;;;;;;;4957654;28;20001;-79
2023/03/17 13:29:41;;;;;;;;;;;;;;;;;;4957180;28;19961;-77
2023/03/17 13:32:07;;;;;;;;;;;;;;;;;;4958087;28;20318;-77
2023/03/17 13:34:33;;;;;;;;;;;;;;;;;;4941329;28;19915;-77
2023/03/17 13:36:58;;;;;;;;;;;;;;;;;;4940844;28;19917;-78
2023/03/17 13:39:33;;;;;;;;;;;;;;;;;;4928052;28;19914;-79
2023/03/17 13:41:58;;;;;;;;;;;;;;;;;;4956493;28;19925;-78
2023/03/17 13:44:24;;;;;;;;;;;;;;;;;;4924721;28;19914;-80
2023/03/17 13:46:53;;;;;;;;;;;;;;;;;;4988312;28;19965;-77
2023/03/17 13:49:21;;;;;;;;;;;;;;;;;;4973526;28;20025;-77
2023/03/17 13:51:46;;;;;;;;;;;;;;;;;;4956267;28;19921;-78
2023/03/17 13:54:12;;;;;;;;;;;;;;;;;;4973866;28;19918;-77
2023/03/17 13:56:38;;;;;;;;;;;;;;;;;;4937469;28;19922;-78
2023/03/17 13:59:07;;;;;;;;;;;;;;;;;;4956504;28;19961;-76
2023/03/17 14:01:33;;;;;;;;;;;;;;;;;;4940671;28;19914;-78
2023/03/17 14:03:59;;;;;;;;;;;;;;;;;;4976722;28;19968;-78
2023/03/17 14:06:26;;;;;;;;;;;;;;;;;;4992534;28;20259;-78
2023/03/17 14:08:52;;;;;;;;;;;;;;;;;;4977776;28;19937;-78
2023/03/17 14:11:18;;;;;;;;;;;;;;;;;;4960810;28;19914;-77
2023/03/17 14:13:43;;;;;;;;;;;;;;;;;;4977165;28;19914;-76
2023/03/17 14:16:11;;;;;;;;;;;;;;;;;;4958421;28;19914;-77
2023/03/17 14:18:36;;;;;;;;;;;;;;;;;;4960631;28;19918;-78
2023/03/17 14:21:04;;;;;;;;;;;;;;;;;;4946260;28;19914;-77
2023/03/17 14:23:29;;;;;;;;;;;;;;;;;;4947838;28;19915;-77
2023/03/17 14:25:54;;;;;;;;;;;;;;;;;;4978011;28;20344;-78
2023/03/17 14:28:20;;;;;;;;;;;;;;;;;;4944986;28;19922;-78
2023/03/17 14:30:45;;;;;;;;;;;;;;;;;;4940548;28;19953;-78
2023/03/17 14:33:11;;;;;;;;;;;;;;;;;;4944221;28;19918;-77
2023/03/17 14:35:37;;;;;;;;;;;;;;;;;;4960693;28;19917;-78
2023/03/17 14:38:04;;;;;;;;;;;;;;;;;;4978260;28;20224;-79
2023/03/17 14:40:31;;;;;;;;;;;;;;;;;;4944544;28;19914;-77
2023/03/17 14:42:56;;;;;;;;;;;;;;;;;;4976840;28;19914;-77
2023/03/17 14:45:22;;;;;;;;;;;;;;;;;;4962210;28;20044;-79
2023/03/17 14:47:48;;;;;;;;;;;;;;;;;;4943203;28;19933;-77
2023/03/17 14:50:13;;;;;;;;;;;;;;;;;;4962021;28;19922;-76
2023/03/17 14:52:40;;;;;;;;;;;;;;;;;;4964058;28;19914;-77
2023/03/17 14:55:07;;;;;;;;;;;;;;;;;;4994765;28;19914;-76
2023/03/17 14:57:32;;;;;;;;;;;;;;;;;;4977533;28;19915;-82
2023/03/17 14:59:58;;;;;;;;;;;;;;;;;;4977202;28;20332;-78
2023/03/17 15:02:24;;;;;;;;;;;;;;;;;;4944907;28;19915;-78
2023/03/17 15:04:50;;;;;;;;;;;;;;;;;;4929154;28;19956;-78
2023/03/17 15:07:15;;;;;;;;;;;;;;;;;;4962956;28;19910;-79
2023/03/17 15:09:41;;;;;;;;;;;;;;;;;;4980241;28;20355;-77
2023/03/17 15:12:09;;;;;;;;;;;;;;;;;;4930751;28;19978;-79
2023/03/17 15:14:35;;;;;;;;;;;;;;;;;;4961802;28;19914;-77
2023/03/17 15:17:00;;;;;;;;;;;;;;;;;;4958140;28;19926;-77
2023/03/17 15:19:26;;;;;;;;;;;;;;;;;;4929921;28;19915;-76
2023/03/17 15:21:52;;;;;;;;;;;;;;;;;;4944724;28;20029;-78
2023/03/17 15:24:17;;;;;;;;;;;;;;;;;;4978461;28;20296;-76
2023/03/17 15:26:43;;;;;;;;;;;;;;;;;;4978493;28;20313;-78
2023/03/17 15:29:08;;;;;;;;;;;;;;;;;;4977510;28;19919;-78
2023/03/17 15:31:34;;;;;;;;;;;;;;;;;;4946208;28;19950;-77
2023/03/17 15:33:59;;;;;;;;;;;;;;;;;;4978864;28;19953;-77
2023/03/17 15:36:27;;;;;;;;;;;;;;;;;;4963413;28;19950;-77
2023/03/17 15:38:53;;;;;;;;;;;;;;;;;;4982399;28;19914;-78
2023/03/17 15:41:18;;;;;;;;;;;;;;;;;;4930169;28;20388;-78
2023/03/17 15:43:44;;;;;;;;;;;;;;;;;;4944747;28;19915;-78
2023/03/17 15:46:09;;;;;;;;;;;;;;;;;;4961863;28;19938;-78
2023/03/17 15:48:35;;;;;;;;;;;;;;;;;;4962365;28;20298;-78
2023/03/17 15:51:01;;;;;;;;;;;;;;;;;;4961791;28;19984;-77
2023/03/17 15:53:27;;;;;;;;;;;;;;;;;;4974270;28;20386;-77
2023/03/17 15:55:53;;;;;;;;;;;;;;;;;;4983459;28;19922;-77
2023/03/17 15:58:18;;;;;;;;;;;;;;;;;;4961528;28;19914;-78
2023/03/17 16:00:46;;;;;;;;;;;;;;;;;;4960385;29;20174;-77
2023/03/17 16:03:11;;;;;;;;;;;;;;;;;;4992616;28;19915;-77
2023/03/17 16:05:37;;;;;;;;;;;;;;;;;;4965454;29;20008;-77
2023/03/17 16:08:02;;;;;;;;;;;;;;;;;;4962544;28;19916;-77
2023/03/17 16:10:28;;;;;;;;;;;;;;;;;;4942749;29;19914;-75
2023/03/17 16:12:54;;;;;;;;;;;;;;;;;;4940969;28;19918;-76
2023/03/17 16:15:20;;;;;;;;;;;;;;;;;;4947896;28;19914;-76
2023/03/17 16:17:46;;;;;;;;;;;;;;;;;;4962040;28;19953;-79
2023/03/17 16:20:12;;;;;;;;;;;;;;;;;;4991243;28;19918;-76
2023/03/17 16:22:38;;;;;;;;;;;;;;;;;;4943769;28;20014;-78
2023/03/17 16:25:03;;;;;;;;;;;;;;;;;;4975560;28;19914;-76
2023/03/17 16:27:29;;;;;;;;;;;;;;;;;;4969624;28;19941;-77
2023/03/17 16:29:54;;;;;;;;;;;;;;;;;;4923431;29;19918;-78
2023/03/17 16:32:22;;;;;;;;;;;;;;;;;;4938805;29;20414;-78
2023/03/17 16:34:47;;;;;;;;;;;;;;;;;;4956240;29;19933;-77
2023/03/17 16:37:12;;;;;;;;;;;;;;;;;;4939488;29;19921;-77
2023/03/17 16:39:38;;;;;;;;;;;;;;;;;;4958981;29;20005;-77